アトランタ の空港の天気 - METARとTAF

ハーツフィールド・ジャクソン・アトランタ国際空港 ( KATL / ATL ) - アメリカ ジョージア州アトランタ
飛行場実況気象(Metar)
観測時間10/21 12:24 EDT (10/21 16:24 UTC)
風向・風速東北東 4m/s
視程10km以上
天気現象
全天の8割程度の雲 雲底高度 610m
気温24.4℃
湿度69%
気圧1024hPa
METARKATL 211624Z 07008KT 10SM BKN020 24/18 A3025 RMK AO2 T02440183
過去の天気等 Google飛行場航空写真 Wunderground天気予報

過去48時間のMETAR

飛行場予報(TAF)
発表時間: 10/21 11:48 EDT (10/21 15:48 UTC)
予報対象時間: 21日12時 EDT ~ 22日14時 EDT
風向・風速東北東 5m/s
視程10km以上
少しの雲 雲底高度 370m
全天の4割程度の雲 雲底高度 640m
21日12時 EDT ~ 21日13時 EDT に一時的に
全天の4割程度の雲 雲底高度 370m
全天の8割程度の雲 雲底高度 640m
21日15時 EDT から
風向・風速東 4m/s
視程10km以上
全天の4割程度の雲 雲底高度 1220m
21日20時 EDT から
風向・風速東 3m/s
視程10km以上
少しの雲 雲底高度 7620m
22日6時 EDT から
風向・風速東北東 3m/s
視程10km以上
全天の4割程度の雲 雲底高度 760m
KATL 211548Z 2116/2218 07009KT P6SM FEW012 SCT021
TEMPO 2116/2117 SCT012 BKN021
FM211900 08008KT P6SM SCT040
FM220000 09006KT P6SM FEW250
FM221000 07006KT P6SM SCT025